createdAt,value
2023-01-13T00:01:18.443Z,54.04
2023-01-13T00:04:21.308Z,53.89
2023-01-13T00:07:25.423Z,53.91
2023-01-13T00:10:28.216Z,53.89
2023-01-13T00:13:33.528Z,53.98
2023-01-13T00:16:36.374Z,54.03
2023-01-13T00:19:39.227Z,53.98
2023-01-13T00:22:43.575Z,53.97
2023-01-13T00:25:46.356Z,54.00
2023-01-13T00:28:49.646Z,53.97
2023-01-13T00:31:52.444Z,53.88
2023-01-13T00:34:55.263Z,53.85
2023-01-13T00:37:59.426Z,53.72
2023-01-13T00:41:04.245Z,53.83
2023-01-13T00:44:06.121Z,53.71
2023-01-13T00:47:08.888Z,53.83
2023-01-13T00:50:12.365Z,53.87
2023-01-13T00:53:17.051Z,53.79
2023-01-13T00:56:38.537Z,53.80
2023-01-13T00:59:42.435Z,53.80
2023-01-13T01:02:45.263Z,53.81
2023-01-13T01:05:48.232Z,53.74
2023-01-13T01:08:52.916Z,53.71
2023-01-13T01:11:55.711Z,53.73
2023-01-13T01:14:58.703Z,53.68
2023-01-13T01:18:01.479Z,53.71
2023-01-13T01:21:05.260Z,53.83
2023-01-13T01:24:10.832Z,53.71
2023-01-13T01:27:13.663Z,53.87
2023-01-13T01:30:16.692Z,53.80
2023-01-13T01:33:19.479Z,53.77
2023-01-13T01:36:26.113Z,53.82
2023-01-13T01:39:30.257Z,53.93
2023-01-13T01:42:50.395Z,54.01
2023-01-13T01:45:53.515Z,53.91
2023-01-13T01:49:00.851Z,53.75
2023-01-13T01:52:07.922Z,53.99
2023-01-13T01:55:17.627Z,53.89
2023-01-13T01:58:28.056Z,53.97
2023-01-13T02:01:31.567Z,53.82
2023-01-13T02:04:37.369Z,53.85
2023-01-13T02:07:43.016Z,53.86
2023-01-13T02:10:51.850Z,53.80
2023-01-13T02:13:54.975Z,53.79
2023-01-13T02:17:25.106Z,53.84
2023-01-13T02:20:51.041Z,53.80
2023-01-13T02:24:36.041Z,53.83
2023-01-13T02:27:58.382Z,53.85
2023-01-13T02:31:25.423Z,53.86
2023-01-13T02:34:37.317Z,53.84
2023-01-13T02:37:43.355Z,53.75
2023-01-13T02:40:55.709Z,53.68
2023-01-13T02:44:06.653Z,53.70
2023-01-13T02:47:17.088Z,53.78
2023-01-13T02:50:24.180Z,53.67
2023-01-13T02:53:34.349Z,53.63
2023-01-13T02:56:42.679Z,53.70
2023-01-13T02:59:45.628Z,53.66
2023-01-13T03:02:50.674Z,53.80
2023-01-13T03:05:57.610Z,53.67
2023-01-13T03:09:07.809Z,53.91
2023-01-13T03:12:19.877Z,53.86
2023-01-13T03:15:30.070Z,53.69
2023-01-13T03:18:45.090Z,53.77
2023-01-13T03:21:56.739Z,53.65
2023-01-13T03:25:09.065Z,53.65
2023-01-13T03:28:21.672Z,53.65
2023-01-13T03:31:29.229Z,53.61
2023-01-13T03:34:37.606Z,53.77
2023-01-13T03:37:45.222Z,53.71
2023-01-13T03:40:53.519Z,53.67
2023-01-13T03:44:21.322Z,53.70
2023-01-13T03:47:30.675Z,53.67
2023-01-13T03:50:39.897Z,53.55
2023-01-13T03:53:49.352Z,53.69
2023-01-13T03:56:57.099Z,53.71
2023-01-13T04:00:04.002Z,53.60
2023-01-13T04:03:21.882Z,53.64
2023-01-13T04:06:35.976Z,53.63
2023-01-13T04:09:46.802Z,53.65
2023-01-13T04:13:04.110Z,53.60
2023-01-13T04:16:09.215Z,53.61
2023-01-13T04:19:12.100Z,53.55
2023-01-13T04:22:16.315Z,53.57
2023-01-13T04:25:19.143Z,53.55
2023-01-13T04:28:22.751Z,53.53
2023-01-13T04:31:25.580Z,53.57
2023-01-13T04:34:28.616Z,53.48
2023-01-13T04:37:32.923Z,53.47
2023-01-13T04:40:35.765Z,53.50
2023-01-13T04:43:38.615Z,53.47
2023-01-13T04:46:41.440Z,53.50
2023-01-13T04:49:44.274Z,53.57
2023-01-13T04:52:49.485Z,53.60
2023-01-13T04:55:52.409Z,53.57
2023-01-13T04:58:55.289Z,53.58
2023-01-13T05:01:58.188Z,53.37
2023-01-13T05:05:01.319Z,53.40
2023-01-13T05:08:05.771Z,53.35
2023-01-13T05:11:22.470Z,53.58
2023-01-13T05:14:42.652Z,53.45
2023-01-13T05:17:45.615Z,53.52
2023-01-13T05:20:48.468Z,53.52
2023-01-13T05:24:09.966Z,53.45
2023-01-13T05:27:12.810Z,53.58
2023-01-13T05:30:16.813Z,53.64
2023-01-13T05:33:21.378Z,53.44
2023-01-13T05:36:24.203Z,53.55
2023-01-13T05:39:49.419Z,53.53
2023-01-13T05:43:19.977Z,53.51
2023-01-13T05:46:22.884Z,53.57
2023-01-13T05:49:26.162Z,53.43
2023-01-13T05:52:29.036Z,53.51
2023-01-13T05:55:33.380Z,53.61
2023-01-13T05:58:36.550Z,53.38
2023-01-13T06:01:39.336Z,53.29
2023-01-13T06:04:42.186Z,53.41
2023-01-13T06:07:45.121Z,53.57
2023-01-13T06:10:49.275Z,53.49
2023-01-13T06:13:52.087Z,53.55
2023-01-13T06:16:54.884Z,53.53
2023-01-13T06:19:57.786Z,53.46
2023-01-13T06:23:02.055Z,53.49
2023-01-13T06:26:13.218Z,53.41
2023-01-13T06:29:16.840Z,53.48
2023-01-13T06:32:23.043Z,53.44
2023-01-13T06:35:30.939Z,53.50
2023-01-13T06:38:38.416Z,53.75
2023-01-13T06:41:59.983Z,53.50
2023-01-13T06:45:02.969Z,53.53
2023-01-13T06:48:06.596Z,53.49
2023-01-13T06:51:09.498Z,53.58
2023-01-13T06:54:12.368Z,53.63
2023-01-13T06:57:16.529Z,53.49
2023-01-13T07:00:20.282Z,53.53
2023-01-13T07:03:23.045Z,53.48
2023-01-13T07:06:25.891Z,53.42
2023-01-13T07:09:28.788Z,53.45
2023-01-13T07:12:52.940Z,53.43
2023-01-13T07:15:56.274Z,53.39
2023-01-13T07:18:59.155Z,53.49
2023-01-13T07:22:02.619Z,53.47
2023-01-13T07:25:06.233Z,53.52
2023-01-13T07:28:10.714Z,53.56
2023-01-13T07:31:18.983Z,53.81
2023-01-13T07:34:21.995Z,54.07
2023-01-13T07:37:24.832Z,53.93
2023-01-13T07:40:27.730Z,54.14
2023-01-13T07:43:33.569Z,54.11
2023-01-13T07:46:36.409Z,54.35
2023-01-13T07:49:39.219Z,54.32
2023-01-13T07:52:42.109Z,54.29
2023-01-13T07:55:45.636Z,54.40
2023-01-13T07:58:52.925Z,54.39
2023-01-13T08:01:56.021Z,54.42
2023-01-13T08:04:58.950Z,54.39
2023-01-13T08:08:02.398Z,54.58
2023-01-13T08:11:07.768Z,54.42
2023-01-13T08:14:11.958Z,54.67
2023-01-13T08:17:15.004Z,54.60
2023-01-13T08:20:18.418Z,54.50
2023-01-13T08:23:21.441Z,54.52
2023-01-13T08:26:24.717Z,54.57
2023-01-13T08:29:29.009Z,54.70
2023-01-13T08:32:32.060Z,54.67
2023-01-13T08:35:35.079Z,54.71
2023-01-13T08:38:38.812Z,54.55
2023-01-13T08:41:56.907Z,54.60
2023-01-13T08:45:01.331Z,54.50
2023-01-13T08:48:05.026Z,54.59
2023-01-13T08:51:10.489Z,54.71
2023-01-13T08:54:14.023Z,54.54
2023-01-13T08:57:19.453Z,54.58
2023-01-13T09:00:24.206Z,54.77
2023-01-13T09:03:27.152Z,54.83
2023-01-13T09:06:30.050Z,54.86
2023-01-13T09:09:33.000Z,54.82
2023-01-13T09:12:53.591Z,54.94
2023-01-13T09:15:57.833Z,55.15
2023-01-13T09:19:00.767Z,55.19
2023-01-13T09:22:04.061Z,55.34
2023-01-13T09:25:07.564Z,55.28
2023-01-13T09:28:10.451Z,55.18
2023-01-13T09:31:15.003Z,55.21
2023-01-13T09:34:37.487Z,55.12
2023-01-13T09:37:41.944Z,54.99
2023-01-13T09:40:44.847Z,55.04
2023-01-13T09:43:54.877Z,54.91
2023-01-13T09:47:04.163Z,55.03
2023-01-13T09:50:21.118Z,54.94
2023-01-13T09:53:29.748Z,54.91
2023-01-13T09:56:32.547Z,54.98
2023-01-13T09:59:36.865Z,55.04
2023-01-13T10:03:05.466Z,55.02
2023-01-13T10:06:14.646Z,54.84
2023-01-13T10:09:23.898Z,54.91
2023-01-13T10:12:45.511Z,54.79
2023-01-13T10:16:18.737Z,54.79
2023-01-13T10:19:29.262Z,54.90
2023-01-13T10:22:52.942Z,54.91
2023-01-13T10:26:04.374Z,54.90
2023-01-13T10:29:20.648Z,54.91
2023-01-13T10:32:23.541Z,54.80
2023-01-13T10:35:54.465Z,54.74
2023-01-13T10:39:08.863Z,54.74
2023-01-13T10:42:15.357Z,54.81
2023-01-13T10:45:26.044Z,54.77
2023-01-13T10:48:38.477Z,54.56
2023-01-13T10:51:46.047Z,54.60
2023-01-13T10:54:53.152Z,54.49
2023-01-13T10:57:56.030Z,54.67
2023-01-13T11:01:05.310Z,54.53
2023-01-13T11:04:28.345Z,54.56
2023-01-13T11:07:35.144Z,54.64
2023-01-13T11:10:47.046Z,54.77
2023-01-13T11:14:08.419Z,54.59
2023-01-13T11:17:32.217Z,54.60
2023-01-13T11:20:41.145Z,54.49
2023-01-13T11:23:51.293Z,54.50
2023-01-13T11:26:59.749Z,54.46
2023-01-13T11:30:11.616Z,54.47
2023-01-13T11:33:38.158Z,54.49
2023-01-13T11:36:46.190Z,54.51
2023-01-13T11:39:56.310Z,54.25
2023-01-13T11:43:06.085Z,54.61
2023-01-13T11:46:11.283Z,54.53
2023-01-13T11:49:23.672Z,54.48
2023-01-13T11:52:43.252Z,54.35
2023-01-13T11:55:56.855Z,54.35
2023-01-13T11:59:38.795Z,54.35
2023-01-13T12:02:59.628Z,54.32
2023-01-13T12:06:12.343Z,54.23
2023-01-13T12:09:34.511Z,54.16
2023-01-13T12:12:50.777Z,54.30
2023-01-13T12:16:10.964Z,54.38
2023-01-13T12:19:25.092Z,54.23
2023-01-13T12:22:34.252Z,54.21
2023-01-13T12:25:45.103Z,54.25
2023-01-13T12:28:54.520Z,54.22
2023-01-13T12:31:58.310Z,54.20
2023-01-13T12:35:21.252Z,54.25
2023-01-13T12:38:34.508Z,54.33
2023-01-13T12:41:59.505Z,54.17
2023-01-13T12:45:22.839Z,54.18
2023-01-13T12:48:49.226Z,54.16
2023-01-13T12:52:15.309Z,54.10
2023-01-13T12:55:20.785Z,54.23
2023-01-13T12:58:28.431Z,54.18
2023-01-13T13:01:37.451Z,54.15
2023-01-13T13:04:44.818Z,54.11
2023-01-13T13:07:50.583Z,54.07
2023-01-13T13:11:02.902Z,54.16
2023-01-13T13:14:06.202Z,54.18
2023-01-13T13:17:44.811Z,54.03
2023-01-13T13:21:06.008Z,54.18
2023-01-13T13:24:12.134Z,54.13
2023-01-13T13:27:19.173Z,54.14
2023-01-13T13:30:29.058Z,53.95
2023-01-13T13:33:48.913Z,53.93
2023-01-13T13:37:03.423Z,54.10
2023-01-13T13:40:29.078Z,53.90
2023-01-13T13:43:56.738Z,54.11
2023-01-13T13:47:02.575Z,53.97
2023-01-13T13:50:14.452Z,54.00
2023-01-13T13:53:20.425Z,53.94
2023-01-13T13:56:27.242Z,53.98
2023-01-13T13:59:31.034Z,53.92
2023-01-13T14:02:38.534Z,54.12
2023-01-13T14:05:54.760Z,53.85
2023-01-13T14:08:57.537Z,54.02
2023-01-13T14:12:02.512Z,53.89
2023-01-13T14:15:06.443Z,53.95
2023-01-13T14:18:14.632Z,53.96
2023-01-13T14:21:22.253Z,53.89
2023-01-13T14:24:25.183Z,53.81
2023-01-13T14:27:30.350Z,53.90
2023-01-13T14:30:34.758Z,53.83
2023-01-13T14:33:40.023Z,53.90
2023-01-13T14:36:47.860Z,53.82
2023-01-13T14:39:50.717Z,54.00
2023-01-13T14:42:59.831Z,53.89
2023-01-13T14:46:03.558Z,53.89
2023-01-13T14:49:06.591Z,53.87
2023-01-13T14:52:15.970Z,53.74
2023-01-13T14:55:29.918Z,53.78
2023-01-13T14:58:32.842Z,53.72
2023-01-13T15:01:39.337Z,53.74
2023-01-13T15:04:42.363Z,53.70
2023-01-13T15:07:52.483Z,53.71
2023-01-13T15:10:59.824Z,53.79
2023-01-13T15:14:03.216Z,53.93
2023-01-13T15:17:16.589Z,53.80
2023-01-13T15:20:21.902Z,53.81
2023-01-13T15:23:26.110Z,53.75
2023-01-13T15:26:30.628Z,53.72
2023-01-13T15:29:34.218Z,53.70
2023-01-13T15:32:37.115Z,53.76
2023-01-13T15:35:42.345Z,53.63
2023-01-13T15:38:46.584Z,53.67
2023-01-13T15:42:06.847Z,53.68
2023-01-13T15:45:30.964Z,53.67
2023-01-13T15:48:33.913Z,53.56
2023-01-13T15:51:38.907Z,53.70
2023-01-13T15:54:43.114Z,53.69
2023-01-13T15:57:49.064Z,53.71
2023-01-13T16:00:51.904Z,53.76
2023-01-13T16:03:56.508Z,53.64
2023-01-13T16:07:00.508Z,53.63
2023-01-13T16:10:05.233Z,53.59
2023-01-13T16:13:08.123Z,53.58
2023-01-13T16:16:19.575Z,53.53
2023-01-13T16:19:23.480Z,53.65
2023-01-13T16:22:26.718Z,53.59
2023-01-13T16:25:30.976Z,53.63
2023-01-13T16:28:35.779Z,53.54
2023-01-13T16:31:38.770Z,53.67
2023-01-13T16:34:42.408Z,53.67
2023-01-13T16:37:47.160Z,53.64
2023-01-13T16:40:52.252Z,53.67
2023-01-13T16:43:55.357Z,53.67
2023-01-13T16:46:58.159Z,53.48
2023-01-13T16:50:01.013Z,53.51
2023-01-13T16:53:04.221Z,53.49
2023-01-13T16:56:19.558Z,53.65
2023-01-13T16:59:23.498Z,53.49
2023-01-13T17:02:26.261Z,53.53
2023-01-13T17:05:29.664Z,53.43
2023-01-13T17:08:32.463Z,53.52
2023-01-13T17:11:36.667Z,53.40
2023-01-13T17:14:40.052Z,53.49
2023-01-13T17:17:44.144Z,53.16
2023-01-13T17:20:46.906Z,53.35
2023-01-13T17:23:49.878Z,53.36
2023-01-13T17:26:54.155Z,53.63
2023-01-13T17:29:57.034Z,53.40
2023-01-13T17:32:59.914Z,53.39
2023-01-13T17:36:02.870Z,53.28
2023-01-13T17:39:05.894Z,53.35
2023-01-13T17:42:10.403Z,53.39
2023-01-13T17:45:13.342Z,53.38
2023-01-13T17:48:16.177Z,53.26
2023-01-13T17:51:20.242Z,53.16
2023-01-13T17:54:23.377Z,53.15
2023-01-13T17:57:27.566Z,53.31
2023-01-13T18:00:30.736Z,53.33
2023-01-13T18:03:33.593Z,53.37
2023-01-13T18:06:36.462Z,53.24
2023-01-13T18:09:39.300Z,53.37
2023-01-13T18:12:43.509Z,53.28
2023-01-13T18:15:46.375Z,53.38
2023-01-13T18:18:51.693Z,53.41
2023-01-13T18:22:12.296Z,53.11
2023-01-13T18:25:32.607Z,53.36
2023-01-13T18:28:36.817Z,53.47
2023-01-13T18:31:39.699Z,53.42
2023-01-13T18:34:42.881Z,53.55
2023-01-13T18:37:45.727Z,53.73
2023-01-13T18:40:48.590Z,54.71
2023-01-13T18:43:51.785Z,55.34
2023-01-13T18:46:54.667Z,56.61
2023-01-13T18:49:58.414Z,57.87
2023-01-13T18:53:02.172Z,58.49
2023-01-13T18:56:11.620Z,57.58
2023-01-13T18:59:16.037Z,55.38
2023-01-13T19:02:21.367Z,54.60
2023-01-13T19:05:24.310Z,54.25
2023-01-13T19:08:27.109Z,53.92
2023-01-13T19:11:31.348Z,53.60
2023-01-13T19:14:37.389Z,53.71
2023-01-13T19:17:40.382Z,54.48
2023-01-13T19:20:43.241Z,54.73
2023-01-13T19:23:46.154Z,54.85
2023-01-13T19:26:49.696Z,54.92
2023-01-13T19:29:57.516Z,54.67
2023-01-13T19:33:00.539Z,54.64
2023-01-13T19:36:04.697Z,54.80
2023-01-13T19:39:08.270Z,55.45
2023-01-13T19:42:29.688Z,55.78
2023-01-13T19:45:35.466Z,55.55
2023-01-13T19:48:39.282Z,55.49
2023-01-13T19:51:42.116Z,55.33
2023-01-13T19:54:45.753Z,55.27
2023-01-13T19:57:48.601Z,55.21
2023-01-13T20:00:53.780Z,55.06
2023-01-13T20:04:02.767Z,54.81
2023-01-13T20:07:06.609Z,54.79
2023-01-13T20:10:10.434Z,54.46
2023-01-13T20:13:13.779Z,54.54
2023-01-13T20:16:18.186Z,54.42
2023-01-13T20:19:21.173Z,54.30
2023-01-13T20:22:24.126Z,54.16
2023-01-13T20:25:28.811Z,54.18
2023-01-13T20:28:36.998Z,54.05
2023-01-13T20:31:41.256Z,54.16
2023-01-13T20:34:44.614Z,54.03
2023-01-13T20:37:47.469Z,54.08
2023-01-13T20:40:59.286Z,53.96
2023-01-13T20:44:01.174Z,54.02
2023-01-13T20:47:05.943Z,54.00
2023-01-13T20:50:09.566Z,53.95
2023-01-13T20:53:12.406Z,53.83
2023-01-13T20:56:15.326Z,54.01
2023-01-13T20:59:18.361Z,53.92
2023-01-13T21:02:24.243Z,53.99
2023-01-13T21:05:28.258Z,53.94
2023-01-13T21:08:31.100Z,53.81
2023-01-13T21:11:51.570Z,53.88
2023-01-13T21:15:11.590Z,53.84
2023-01-13T21:18:33.507Z,53.93
2023-01-13T21:21:36.337Z,53.74
2023-01-13T21:24:39.213Z,53.80
2023-01-13T21:27:43.960Z,53.81
2023-01-13T21:30:47.854Z,53.78
2023-01-13T21:33:55.026Z,53.68
2023-01-13T21:36:57.977Z,53.80
2023-01-13T21:40:01.473Z,53.82
2023-01-13T21:43:21.683Z,53.69
2023-01-13T21:46:42.708Z,53.73
2023-01-13T21:49:47.213Z,53.64
2023-01-13T21:52:52.321Z,53.70
2023-01-13T21:55:55.203Z,53.69
2023-01-13T21:58:58.065Z,53.68
2023-01-13T22:02:23.820Z,53.43
2023-01-13T22:05:29.061Z,53.42
2023-01-13T22:08:35.600Z,53.46
2023-01-13T22:11:38.381Z,53.54
2023-01-13T22:14:41.726Z,53.58
2023-01-13T22:17:45.656Z,53.54
2023-01-13T22:20:50.533Z,53.58
2023-01-13T22:23:53.342Z,53.49
2023-01-13T22:26:56.145Z,53.51
2023-01-13T22:29:59.188Z,53.42
2023-01-13T22:33:02.202Z,53.45
2023-01-13T22:36:07.564Z,53.54
2023-01-13T22:39:10.413Z,53.43
2023-01-13T22:42:13.236Z,53.47
2023-01-13T22:45:16.215Z,53.54
2023-01-13T22:48:19.078Z,53.43
2023-01-13T22:51:23.819Z,53.44
2023-01-13T22:54:26.630Z,53.34
2023-01-13T22:57:36.125Z,53.53
2023-01-13T23:00:46.789Z,53.48
2023-01-13T23:03:49.674Z,53.35
2023-01-13T23:06:53.998Z,53.49
2023-01-13T23:09:56.836Z,53.50
2023-01-13T23:12:59.754Z,53.50
2023-01-13T23:16:04.394Z,53.52
2023-01-13T23:19:08.462Z,53.44
2023-01-13T23:22:13.576Z,53.46
2023-01-13T23:25:16.532Z,53.40
2023-01-13T23:28:20.616Z,53.41
2023-01-13T23:31:23.502Z,53.47
2023-01-13T23:34:26.445Z,53.38
2023-01-13T23:37:30.589Z,53.41
2023-01-13T23:40:35.138Z,53.41
2023-01-13T23:43:37.973Z,53.41
2023-01-13T23:46:40.823Z,53.34
2023-01-13T23:49:43.674Z,53.40
2023-01-13T23:52:48.337Z,53.48
2023-01-13T23:55:56.936Z,53.44
2023-01-13T23:59:00.082Z,53.37
